createdAt,value
2023-05-17T00:00:22.106Z,909.63
2023-05-17T00:01:22.126Z,938.04
2023-05-17T00:02:22.167Z,921.64
2023-05-17T00:03:22.136Z,1000.00
2023-05-17T00:04:22.147Z,1000.00
2023-05-17T00:05:22.155Z,1000.00
2023-05-17T00:06:22.203Z,1000.00
2023-05-17T00:07:22.184Z,1000.00
2023-05-17T00:08:22.319Z,1000.00
2023-05-17T00:09:22.192Z,1000.00
2023-05-17T00:10:22.181Z,1000.00
2023-05-17T00:11:22.203Z,1000.00
2023-05-17T00:12:22.199Z,1000.00
2023-05-17T00:13:22.215Z,1000.00
2023-05-17T00:14:22.200Z,1000.00
2023-05-17T00:15:22.225Z,1000.00
2023-05-17T00:16:22.243Z,1000.00
2023-05-17T00:17:22.234Z,1000.00
2023-05-17T00:18:22.268Z,1000.00
2023-05-17T00:19:22.378Z,1000.00
2023-05-17T00:20:22.233Z,1000.00
2023-05-17T00:21:22.262Z,1000.00
2023-05-17T00:22:22.303Z,1000.00
2023-05-17T00:23:22.296Z,936.39
2023-05-17T00:24:22.361Z,1000.00
2023-05-17T00:25:22.345Z,895.76
2023-05-17T00:26:22.390Z,691.87
2023-05-17T00:27:22.490Z,626.27
2023-05-17T00:28:22.529Z,616.05
2023-05-17T00:29:22.552Z,625.56
2023-05-17T00:30:22.557Z,505.95
2023-05-17T00:31:22.616Z,379.81
2023-05-17T00:32:22.716Z,310.54
2023-05-17T00:33:22.723Z,254.98
2023-05-17T00:34:22.791Z,216.17
2023-05-17T00:35:22.954Z,200.62
2023-05-17T00:36:22.877Z,191.61
2023-05-17T00:37:22.957Z,193.33
2023-05-17T00:38:22.976Z,186.14
2023-05-17T00:39:23.039Z,195.97
2023-05-17T00:40:23.166Z,224.21
2023-05-17T00:41:23.159Z,227.11
2023-05-17T00:42:23.191Z,225.48
2023-05-17T00:43:23.236Z,203.96
2023-05-17T00:44:23.300Z,186.67
2023-05-17T00:45:23.367Z,192.59
2023-05-17T00:46:23.411Z,165.34
2023-05-17T00:47:23.512Z,112.40
2023-05-17T00:48:23.621Z,93.91
2023-05-17T00:49:23.528Z,87.93
2023-05-17T00:50:23.558Z,67.66
2023-05-17T00:51:23.654Z,58.66
2023-05-17T00:52:23.673Z,51.82
2023-05-17T00:53:23.742Z,44.70
2023-05-17T00:54:23.786Z,29.97
2023-05-17T00:55:23.821Z,20.33
2023-05-17T00:56:23.946Z,14.71
2023-05-17T00:57:23.958Z,13.95
2023-05-17T00:58:24.019Z,12.51
2023-05-17T00:59:24.031Z,11.27
2023-05-17T01:00:24.082Z,11.56
2023-05-17T01:01:24.107Z,12.46
2023-05-17T01:02:24.242Z,13.28
2023-05-17T01:03:24.297Z,14.65
2023-05-17T01:04:24.294Z,14.47
2023-05-17T01:05:24.311Z,12.41
2023-05-17T01:06:24.343Z,11.81
2023-05-17T01:07:24.400Z,12.47
2023-05-17T01:08:24.457Z,13.45
2023-05-17T01:09:24.526Z,14.23
2023-05-17T01:10:24.580Z,16.57
2023-05-17T01:11:24.616Z,16.74
2023-05-17T01:12:24.706Z,13.83
2023-05-17T01:13:24.712Z,10.60
2023-05-17T01:14:24.802Z,8.85
2023-05-17T01:15:24.851Z,8.67
2023-05-17T01:16:24.903Z,7.38
2023-05-17T01:17:25.073Z,5.87
2023-05-17T01:18:25.063Z,4.84
2023-05-17T01:19:25.178Z,4.41
2023-05-17T01:20:25.122Z,4.02
2023-05-17T01:21:25.151Z,3.95
2023-05-17T01:22:25.231Z,4.05
2023-05-17T01:23:25.263Z,4.53
2023-05-17T01:24:25.329Z,4.98
2023-05-17T01:25:25.385Z,5.79
2023-05-17T01:26:25.410Z,5.96
2023-05-17T01:27:25.473Z,5.56
2023-05-17T01:28:25.536Z,5.26
2023-05-17T01:29:25.587Z,5.43
2023-05-17T01:30:25.612Z,5.54
2023-05-17T01:31:25.665Z,5.25
2023-05-17T01:32:25.802Z,4.82
2023-05-17T01:33:25.846Z,4.56
2023-05-17T01:34:25.840Z,3.90
2023-05-17T01:35:25.987Z,3.16
2023-05-17T01:36:25.964Z,2.77
2023-05-17T01:37:26.026Z,2.92
2023-05-17T01:38:26.079Z,3.23
2023-05-17T01:39:26.114Z,3.29
2023-05-17T01:40:26.175Z,3.73
2023-05-17T01:41:26.203Z,5.12
2023-05-17T01:42:26.217Z,6.40
2023-05-17T01:43:26.234Z,7.69
2023-05-17T01:44:26.348Z,8.85
2023-05-17T01:45:26.490Z,9.37
2023-05-17T01:46:26.231Z,9.62
2023-05-17T01:47:26.256Z,8.32
2023-05-17T01:48:26.284Z,7.56
2023-05-17T01:49:26.249Z,7.49
2023-05-17T01:50:26.253Z,8.03
2023-05-17T01:51:26.289Z,8.01
2023-05-17T01:52:26.287Z,8.89
2023-05-17T01:53:26.284Z,9.03
2023-05-17T01:54:26.278Z,9.42
2023-05-17T01:55:26.394Z,10.44
2023-05-17T01:56:26.311Z,9.72
2023-05-17T01:57:26.344Z,9.79
2023-05-17T01:58:26.319Z,9.25
2023-05-17T01:59:26.333Z,9.47
2023-05-17T02:00:26.389Z,11.64
2023-05-17T02:01:26.352Z,15.23
2023-05-17T02:02:26.395Z,19.89
2023-05-17T02:03:26.386Z,30.17
2023-05-17T02:04:26.369Z,40.45
2023-05-17T02:05:26.537Z,43.66
2023-05-17T02:06:26.387Z,40.84
2023-05-17T02:07:26.370Z,49.85
2023-05-17T02:08:26.397Z,70.64
2023-05-17T02:09:26.418Z,68.97
2023-05-17T02:10:26.446Z,48.60
2023-05-17T02:11:26.455Z,38.08
2023-05-17T02:12:26.473Z,37.63
2023-05-17T02:13:26.504Z,46.59
2023-05-17T02:14:26.544Z,53.12
2023-05-17T02:15:26.635Z,60.94
2023-05-17T02:16:26.675Z,57.05
2023-05-17T02:17:26.661Z,53.85
2023-05-17T02:18:26.700Z,56.30
2023-05-17T02:19:26.691Z,58.54
2023-05-17T02:20:26.662Z,57.10
2023-05-17T02:21:26.682Z,60.66
2023-05-17T02:22:26.701Z,60.99
2023-05-17T02:23:26.731Z,55.64
2023-05-17T02:24:26.750Z,45.70
2023-05-17T02:25:27.094Z,35.56
2023-05-17T02:26:26.828Z,32.40
2023-05-17T02:27:26.864Z,32.64
2023-05-17T02:28:26.868Z,34.42
2023-05-17T02:29:26.942Z,36.30
2023-05-17T02:30:26.905Z,38.83
2023-05-17T02:31:27.016Z,44.00
2023-05-17T02:32:26.982Z,57.90
2023-05-17T02:33:27.021Z,71.03
2023-05-17T02:34:27.007Z,76.39
2023-05-17T02:35:27.124Z,62.62
2023-05-17T02:36:27.026Z,41.18
2023-05-17T02:37:27.071Z,33.80
2023-05-17T02:38:27.115Z,34.15
2023-05-17T02:39:27.145Z,34.32
2023-05-17T02:40:27.197Z,34.39
2023-05-17T02:41:27.259Z,31.27
2023-05-17T02:42:27.276Z,32.52
2023-05-17T02:43:27.291Z,34.34
2023-05-17T02:44:27.328Z,29.83
2023-05-17T02:45:27.526Z,24.05
2023-05-17T02:46:27.361Z,16.56
2023-05-17T02:47:27.459Z,15.70
2023-05-17T02:48:27.392Z,17.20
2023-05-17T02:49:27.451Z,19.79
2023-05-17T02:50:27.456Z,19.66
2023-05-17T02:51:27.482Z,15.54
2023-05-17T02:52:27.526Z,14.26
2023-05-17T02:53:27.554Z,11.34
2023-05-17T02:54:27.576Z,9.73
2023-05-17T02:55:27.807Z,8.50
2023-05-17T02:56:27.618Z,7.02
2023-05-17T02:57:27.673Z,6.17
2023-05-17T02:58:27.693Z,5.45
2023-05-17T02:59:27.722Z,5.87
2023-05-17T03:00:27.757Z,5.75
2023-05-17T03:01:27.768Z,5.94
2023-05-17T03:02:27.934Z,6.37
2023-05-17T03:03:28.010Z,7.21
2023-05-17T03:04:27.992Z,7.12
2023-05-17T03:05:28.205Z,7.45
2023-05-17T03:06:27.907Z,6.46
2023-05-17T03:07:27.920Z,5.18
2023-05-17T03:08:27.983Z,4.50
2023-05-17T03:09:27.961Z,4.34
2023-05-17T03:10:27.991Z,4.60
2023-05-17T03:11:28.012Z,4.97
2023-05-17T03:12:29.437Z,5.31
2023-05-17T03:13:28.056Z,4.94
2023-05-17T03:14:28.068Z,5.16
2023-05-17T03:15:28.241Z,4.98
2023-05-17T03:16:28.075Z,4.99
2023-05-17T03:17:28.136Z,5.16
2023-05-17T03:18:28.212Z,5.47
2023-05-17T03:19:28.204Z,5.80
2023-05-17T03:20:28.227Z,5.41
2023-05-17T03:21:28.129Z,5.12
2023-05-17T03:22:28.132Z,5.02
2023-05-17T03:23:28.148Z,5.28
2023-05-17T03:24:28.155Z,5.90
2023-05-17T03:25:28.269Z,4.56
2023-05-17T03:26:28.191Z,4.24
2023-05-17T03:27:28.197Z,4.15
2023-05-17T03:28:28.172Z,4.37
2023-05-17T03:29:28.186Z,3.89
2023-05-17T03:30:28.244Z,3.75
2023-05-17T03:31:28.184Z,3.65
2023-05-17T03:32:28.192Z,3.95
2023-05-17T03:33:28.293Z,4.18
2023-05-17T03:34:28.221Z,4.76
2023-05-17T03:35:28.379Z,4.81
2023-05-17T03:36:28.471Z,5.74
2023-05-17T03:37:28.337Z,6.69
2023-05-17T03:38:28.332Z,7.29
2023-05-17T03:39:28.343Z,6.70
2023-05-17T03:40:28.342Z,5.51
2023-05-17T03:41:28.342Z,4.93
2023-05-17T03:42:28.348Z,5.19
2023-05-17T03:43:28.367Z,5.96
2023-05-17T03:44:28.403Z,6.13
2023-05-17T03:45:28.635Z,4.96
2023-05-17T03:46:28.396Z,4.07
2023-05-17T03:47:28.441Z,3.62
2023-05-17T03:48:28.486Z,3.49
2023-05-17T03:49:28.462Z,3.61
2023-05-17T03:50:28.481Z,3.80
2023-05-17T03:51:28.505Z,4.16
2023-05-17T03:52:28.568Z,4.12
2023-05-17T03:53:28.508Z,4.04
2023-05-17T03:54:28.563Z,3.88
2023-05-17T03:55:28.837Z,3.30
2023-05-17T03:56:28.594Z,2.59
2023-05-17T03:57:28.619Z,2.56
2023-05-17T03:58:28.648Z,2.61
2023-05-17T03:59:28.659Z,2.29
2023-05-17T04:00:28.701Z,2.37
2023-05-17T04:01:28.805Z,2.40
2023-05-17T04:02:28.778Z,2.49
2023-05-17T04:03:28.752Z,2.75
2023-05-17T04:04:28.852Z,3.23
2023-05-17T04:05:28.949Z,4.27
2023-05-17T04:06:28.861Z,5.83
2023-05-17T04:07:28.906Z,7.64
2023-05-17T04:08:29.039Z,8.91
2023-05-17T04:09:28.938Z,10.23
2023-05-17T04:10:28.988Z,12.40
2023-05-17T04:11:29.028Z,15.06
2023-05-17T04:12:29.073Z,17.60
2023-05-17T04:13:29.111Z,17.34
2023-05-17T04:14:29.138Z,14.18
2023-05-17T04:15:29.369Z,12.11
2023-05-17T04:16:29.234Z,11.67
2023-05-17T04:17:29.311Z,11.28
2023-05-17T04:18:29.462Z,11.18
2023-05-17T04:19:29.643Z,11.31
2023-05-17T04:20:29.458Z,12.90
2023-05-17T04:21:29.522Z,12.44
2023-05-17T04:22:29.564Z,12.41
2023-05-17T04:23:29.551Z,10.53
2023-05-17T04:24:29.592Z,9.10
2023-05-17T04:25:29.740Z,9.03
2023-05-17T04:26:29.680Z,9.90
2023-05-17T04:27:29.712Z,10.29
2023-05-17T04:28:29.754Z,7.64
2023-05-17T04:29:29.793Z,5.82
2023-05-17T04:30:29.832Z,5.24
2023-05-17T04:31:29.872Z,4.97
2023-05-17T04:32:30.001Z,4.69
2023-05-17T04:33:29.973Z,4.92
2023-05-17T04:34:29.993Z,5.29
2023-05-17T04:35:30.195Z,5.76
2023-05-17T04:36:30.077Z,6.45
2023-05-17T04:37:30.103Z,6.64
2023-05-17T04:38:30.139Z,6.97
2023-05-17T04:39:30.950Z,6.54
2023-05-17T04:40:30.336Z,6.72
2023-05-17T04:41:30.294Z,6.53
2023-05-17T04:42:30.339Z,5.94
2023-05-17T04:43:30.395Z,5.31
2023-05-17T04:44:30.418Z,5.18
2023-05-17T04:45:30.560Z,4.84
2023-05-17T04:46:30.491Z,4.14
2023-05-17T04:47:30.583Z,3.82
2023-05-17T04:48:30.643Z,3.57
2023-05-17T04:49:30.591Z,3.96
2023-05-17T04:50:30.595Z,4.10
2023-05-17T04:51:30.627Z,3.52
2023-05-17T04:52:30.653Z,3.20
2023-05-17T04:53:30.678Z,2.99
2023-05-17T04:54:30.662Z,2.73
2023-05-17T04:55:30.997Z,2.79
2023-05-17T04:56:30.803Z,2.93
2023-05-17T04:57:30.785Z,3.10
2023-05-17T04:58:30.762Z,3.39
2023-05-17T04:59:30.793Z,3.50
2023-05-17T05:00:30.820Z,3.58
2023-05-17T05:01:30.869Z,3.93
2023-05-17T05:02:30.951Z,4.47
2023-05-17T05:03:30.984Z,3.87
2023-05-17T05:04:31.002Z,4.07
2023-05-17T05:05:31.103Z,4.86
2023-05-17T05:06:31.090Z,5.42
2023-05-17T05:07:31.113Z,6.97
2023-05-17T05:08:31.128Z,11.35
2023-05-17T05:09:31.148Z,21.92
2023-05-17T05:10:31.154Z,25.80
2023-05-17T05:11:31.162Z,28.11
2023-05-17T05:12:31.341Z,18.72
2023-05-17T05:13:31.139Z,14.26
2023-05-17T05:14:31.152Z,9.44
2023-05-17T05:15:31.228Z,6.70
2023-05-17T05:16:31.172Z,5.92
2023-05-17T05:17:31.289Z,4.41
2023-05-17T05:18:31.305Z,3.86
2023-05-17T05:19:31.201Z,3.51
2023-05-17T05:20:31.177Z,3.35
2023-05-17T05:21:31.180Z,3.29
2023-05-17T05:22:31.232Z,3.52
2023-05-17T05:23:31.205Z,4.14
2023-05-17T05:24:31.228Z,3.94
2023-05-17T05:25:31.372Z,4.91
2023-05-17T05:26:31.308Z,7.88
2023-05-17T05:27:31.331Z,6.60
2023-05-17T05:28:31.491Z,3.92
2023-05-17T05:29:31.337Z,2.67
2023-05-17T05:30:31.369Z,2.19
2023-05-17T05:31:31.389Z,2.25
2023-05-17T05:32:31.570Z,3.01
2023-05-17T05:33:31.537Z,3.60
2023-05-17T05:34:31.563Z,4.48
2023-05-17T05:35:31.696Z,4.03
2023-05-17T05:36:31.667Z,4.24
2023-05-17T05:37:31.698Z,3.27
2023-05-17T05:38:31.685Z,3.16
2023-05-17T05:39:31.748Z,3.69
2023-05-17T05:40:32.190Z,5.49
2023-05-17T05:41:31.765Z,10.97
2023-05-17T05:42:31.867Z,30.30
2023-05-17T05:43:31.919Z,113.03
2023-05-17T05:44:31.976Z,361.61
2023-05-17T05:45:31.960Z,961.17
2023-05-17T05:46:32.069Z,1000.00
2023-05-17T05:47:32.047Z,1000.00
2023-05-17T05:48:32.083Z,1000.00
2023-05-17T05:49:32.009Z,1000.00
2023-05-17T05:50:32.013Z,1000.00
2023-05-17T05:51:32.036Z,1000.00
2023-05-17T05:52:32.032Z,1000.00
2023-05-17T05:53:32.015Z,1000.00
2023-05-17T05:54:32.026Z,1000.00
2023-05-17T05:55:32.062Z,1000.00
2023-05-17T05:56:32.032Z,1000.00
2023-05-17T05:57:32.133Z,1000.00
2023-05-17T05:58:32.079Z,1000.00
2023-05-17T05:59:32.072Z,1000.00
2023-05-17T06:00:32.256Z,1000.00
2023-05-17T06:01:32.086Z,1000.00
2023-05-17T06:02:32.141Z,1000.00
2023-05-17T06:03:32.141Z,1000.00
2023-05-17T06:04:43.741Z,1000.00
2023-05-17T06:05:33.216Z,1000.00
2023-05-17T06:06:32.169Z,1000.00
2023-05-17T06:07:32.070Z,1000.00
2023-05-17T06:08:32.046Z,1000.00
2023-05-17T06:09:32.057Z,1000.00
2023-05-17T06:10:32.180Z,1000.00
2023-05-17T06:11:32.017Z,1000.00
2023-05-17T06:12:32.027Z,1000.00
2023-05-17T06:13:32.014Z,1000.00
2023-05-17T06:14:32.023Z,1000.00
2023-05-17T06:15:32.003Z,1000.00
2023-05-17T06:16:32.178Z,1000.00
2023-05-17T06:17:32.153Z,1000.00
2023-05-17T06:18:32.151Z,1000.00
2023-05-17T06:19:32.378Z,1000.00
2023-05-17T06:20:32.257Z,1000.00
2023-05-17T06:21:32.207Z,1000.00
2023-05-17T06:22:32.254Z,1000.00
2023-05-17T06:23:32.294Z,1000.00
2023-05-17T06:24:33.161Z,1000.00
2023-05-17T06:25:32.481Z,1000.00
2023-05-17T06:26:32.395Z,1000.00
2023-05-17T06:27:32.433Z,1000.00
2023-05-17T06:28:32.480Z,1000.00
2023-05-17T06:29:32.457Z,1000.00
2023-05-17T06:30:32.784Z,1000.00
2023-05-17T06:31:32.570Z,1000.00
2023-05-17T06:32:32.702Z,1000.00
2023-05-17T06:33:33.110Z,1000.00
2023-05-17T06:34:32.735Z,1000.00
2023-05-17T06:35:43.837Z,1000.00
2023-05-17T06:36:34.270Z,1000.00
2023-05-17T06:37:32.770Z,1000.00
2023-05-17T06:38:33.079Z,1000.00
2023-05-17T06:39:32.732Z,1000.00
2023-05-17T06:40:32.942Z,1000.00
2023-05-17T06:41:32.726Z,1000.00
2023-05-17T06:42:32.765Z,1000.00
2023-05-17T06:43:34.102Z,1000.00
2023-05-17T06:44:32.687Z,1000.00
2023-05-17T06:45:32.703Z,1000.00
2023-05-17T06:46:32.684Z,1000.00
2023-05-17T06:47:32.764Z,1000.00
2023-05-17T06:48:32.882Z,1000.00
2023-05-17T06:49:32.671Z,1000.00
2023-05-17T06:50:32.787Z,1000.00
2023-05-17T06:51:32.713Z,1000.00
2023-05-17T06:52:32.663Z,1000.00
2023-05-17T06:53:32.649Z,1000.00
2023-05-17T06:54:32.682Z,1000.00
2023-05-17T06:55:32.614Z,1000.00
2023-05-17T06:56:32.619Z,1000.00
2023-05-17T06:57:32.591Z,1000.00
2023-05-17T06:58:32.625Z,1000.00
2023-05-17T06:59:32.584Z,1000.00
2023-05-17T07:00:32.925Z,1000.00
2023-05-17T07:01:32.600Z,1000.00
2023-05-17T07:02:34.468Z,1000.00
2023-05-17T07:03:32.697Z,1000.00
2023-05-17T07:04:32.642Z,1000.00
2023-05-17T07:05:32.874Z,1000.00
2023-05-17T07:06:32.577Z,1000.00
2023-05-17T07:07:32.586Z,1000.00
2023-05-17T07:08:33.087Z,1000.00
2023-05-17T07:09:32.665Z,1000.00
2023-05-17T07:10:32.740Z,1000.00
2023-05-17T07:11:32.819Z,1000.00
2023-05-17T07:12:32.860Z,1000.00
2023-05-17T07:13:33.053Z,1000.00
2023-05-17T07:14:32.951Z,1000.00
2023-05-17T07:15:33.001Z,1000.00
2023-05-17T07:16:33.056Z,1000.00
2023-05-17T07:17:33.231Z,1000.00
2023-05-17T07:18:33.631Z,1000.00
2023-05-17T07:19:33.230Z,1000.00
2023-05-17T07:20:33.411Z,1000.00
2023-05-17T07:21:33.235Z,1000.00
2023-05-17T07:22:33.313Z,1000.00
2023-05-17T07:23:33.423Z,1000.00
2023-05-17T07:24:33.411Z,1000.00
2023-05-17T07:25:33.465Z,1000.00
2023-05-17T07:26:33.542Z,1000.00
2023-05-17T07:27:33.452Z,1000.00
2023-05-17T07:28:33.568Z,1000.00
2023-05-17T07:29:33.430Z,1000.00
2023-05-17T07:30:33.424Z,1000.00
2023-05-17T07:31:33.441Z,1000.00
2023-05-17T07:32:33.432Z,1000.00
2023-05-17T07:33:33.409Z,1000.00
2023-05-17T07:34:33.413Z,1000.00
2023-05-17T07:35:33.598Z,1000.00
2023-05-17T07:36:33.568Z,1000.00
2023-05-17T07:37:33.401Z,1000.00
2023-05-17T07:38:33.582Z,1000.00
2023-05-17T07:39:33.349Z,1000.00
2023-05-17T07:40:33.383Z,1000.00
2023-05-17T07:41:33.344Z,1000.00
2023-05-17T07:42:33.349Z,1000.00
2023-05-17T07:43:33.326Z,1000.00
2023-05-17T07:44:33.334Z,1000.00
2023-05-17T07:45:33.320Z,1000.00
2023-05-17T07:46:33.357Z,1000.00
2023-05-17T07:47:33.351Z,1000.00
2023-05-17T07:48:33.389Z,1000.00
2023-05-17T07:49:33.412Z,1000.00
2023-05-17T07:50:33.442Z,1000.00
2023-05-17T07:51:33.473Z,1000.00
2023-05-17T07:52:33.570Z,1000.00
2023-05-17T07:53:33.530Z,1000.00
2023-05-17T07:54:33.577Z,1000.00
2023-05-17T07:55:33.582Z,1000.00
2023-05-17T07:56:33.661Z,1000.00
2023-05-17T07:57:33.693Z,1000.00
2023-05-17T07:58:34.102Z,1000.00
2023-05-17T07:59:33.778Z,1000.00
2023-05-17T08:00:33.756Z,1000.00
2023-05-17T08:01:33.808Z,1000.00
2023-05-17T08:02:33.889Z,1000.00
2023-05-17T08:03:34.062Z,1000.00
2023-05-17T08:04:33.934Z,1000.00
2023-05-17T08:05:33.994Z,1000.00
2023-05-17T08:06:34.093Z,1000.00
2023-05-17T08:07:34.041Z,1000.00
2023-05-17T08:08:34.206Z,1000.00
2023-05-17T08:09:34.157Z,1000.00
2023-05-17T08:10:34.184Z,1000.00
2023-05-17T08:11:35.152Z,1000.00
2023-05-17T08:12:34.241Z,1000.00
2023-05-17T08:13:34.261Z,1000.00
2023-05-17T08:14:34.313Z,1000.00
2023-05-17T08:15:34.389Z,1000.00
2023-05-17T08:16:34.415Z,1000.00
2023-05-17T08:17:34.458Z,1000.00
2023-05-17T08:18:34.542Z,1000.00
2023-05-17T08:19:34.558Z,1000.00
2023-05-17T08:20:34.669Z,1000.00
2023-05-17T08:21:34.605Z,1000.00
2023-05-17T08:22:34.627Z,1000.00
2023-05-17T08:23:35.079Z,1000.00
2023-05-17T08:24:34.705Z,1000.00
2023-05-17T08:25:34.766Z,1000.00
2023-05-17T08:26:34.801Z,1000.00
2023-05-17T08:27:34.864Z,1000.00
2023-05-17T08:28:34.900Z,1000.00
2023-05-17T08:29:35.685Z,1000.00
2023-05-17T08:30:34.959Z,1000.00
2023-05-17T08:31:35.002Z,1000.00
2023-05-17T08:32:35.062Z,1000.00
2023-05-17T08:33:35.689Z,1000.00
2023-05-17T08:34:35.127Z,1000.00
2023-05-17T08:35:35.170Z,1000.00
2023-05-17T08:36:35.263Z,1000.00
2023-05-17T08:37:35.237Z,1000.00
2023-05-17T08:38:35.284Z,1000.00
2023-05-17T08:39:35.323Z,1000.00
2023-05-17T08:40:35.376Z,1000.00
2023-05-17T08:41:36.083Z,1000.00
2023-05-17T08:42:35.393Z,1000.00
2023-05-17T08:43:35.400Z,1000.00
2023-05-17T08:44:35.412Z,1000.00
2023-05-17T08:45:35.422Z,1000.00
2023-05-17T08:46:35.452Z,1000.00
2023-05-17T08:47:35.468Z,1000.00
2023-05-17T08:48:35.476Z,1000.00
2023-05-17T08:49:35.420Z,1000.00
2023-05-17T08:50:35.455Z,1000.00
2023-05-17T08:51:35.430Z,1000.00
2023-05-17T08:52:35.465Z,1000.00
2023-05-17T08:53:35.578Z,1000.00
2023-05-17T08:54:35.471Z,1000.00
2023-05-17T08:55:35.496Z,1000.00
2023-05-17T08:56:35.492Z,1000.00
2023-05-17T08:57:35.506Z,1000.00
2023-05-17T08:58:44.312Z,1000.00
2023-05-17T08:59:36.510Z,1000.00
2023-05-17T09:00:35.492Z,1000.00
2023-05-17T09:01:35.485Z,1000.00
2023-05-17T09:02:35.574Z,1000.00
2023-05-17T09:03:35.621Z,1000.00
2023-05-17T09:04:35.603Z,1000.00
2023-05-17T09:05:35.509Z,1000.00
2023-05-17T09:06:35.483Z,1000.00
2023-05-17T09:07:35.480Z,1000.00
2023-05-17T09:08:35.440Z,1000.00
2023-05-17T09:09:35.429Z,1000.00
2023-05-17T09:10:35.452Z,1000.00
2023-05-17T09:11:35.419Z,1000.00
2023-05-17T09:12:35.416Z,1000.00
2023-05-17T09:13:35.454Z,1000.00
2023-05-17T09:14:35.387Z,1000.00
2023-05-17T09:15:35.407Z,1000.00
2023-05-17T09:16:35.433Z,1000.00
2023-05-17T09:17:35.388Z,1000.00
2023-05-17T09:18:35.518Z,1000.00
2023-05-17T09:19:35.515Z,1000.00
2023-05-17T09:20:35.537Z,1000.00
2023-05-17T09:21:35.475Z,1000.00
2023-05-17T09:22:35.483Z,1000.00
2023-05-17T09:23:35.471Z,1000.00
2023-05-17T09:24:35.518Z,1000.00
2023-05-17T09:25:35.540Z,1000.00
2023-05-17T09:26:35.557Z,1000.00
2023-05-17T09:27:35.576Z,1000.00
2023-05-17T09:28:35.583Z,1000.00
2023-05-17T09:29:35.586Z,1000.00
2023-05-17T09:30:35.627Z,1000.00
2023-05-17T09:31:35.624Z,1000.00
2023-05-17T09:32:35.712Z,1000.00
2023-05-17T09:33:36.116Z,1000.00
2023-05-17T09:34:35.699Z,1000.00
2023-05-17T09:35:35.731Z,1000.00
2023-05-17T09:36:35.735Z,1000.00
2023-05-17T09:37:35.777Z,1000.00
2023-05-17T09:38:36.109Z,1000.00
2023-05-17T09:39:35.819Z,1000.00
2023-05-17T09:40:35.805Z,1000.00
2023-05-17T09:41:35.850Z,1000.00
2023-05-17T09:42:35.857Z,1000.00
2023-05-17T09:43:36.095Z,1000.00
2023-05-17T09:44:35.959Z,1000.00
2023-05-17T09:45:35.948Z,1000.00
2023-05-17T09:46:35.939Z,1000.00
2023-05-17T09:47:36.001Z,1000.00
2023-05-17T09:48:36.022Z,1000.00
2023-05-17T09:49:35.999Z,1000.00
2023-05-17T09:50:36.049Z,1000.00
2023-05-17T09:51:36.081Z,1000.00
2023-05-17T09:52:36.120Z,1000.00
2023-05-17T09:53:36.146Z,1000.00
2023-05-17T09:54:36.147Z,1000.00
2023-05-17T09:55:37.292Z,1000.00
2023-05-17T09:56:36.229Z,1000.00
2023-05-17T09:57:36.208Z,1000.00
2023-05-17T09:58:36.311Z,1000.00
2023-05-17T09:59:36.269Z,1000.00
2023-05-17T10:00:36.436Z,1000.00
2023-05-17T10:01:36.274Z,1000.00
2023-05-17T10:02:36.339Z,1000.00
2023-05-17T10:03:36.576Z,1000.00
2023-05-17T10:04:36.361Z,1000.00
2023-05-17T10:05:36.442Z,1000.00
2023-05-17T10:06:46.044Z,1000.00
2023-05-17T10:07:37.381Z,1000.00
2023-05-17T10:08:36.384Z,1000.00
2023-05-17T10:09:36.389Z,1000.00
2023-05-17T10:10:36.362Z,1000.00
2023-05-17T10:11:36.349Z,1000.00
2023-05-17T10:12:36.380Z,1000.00
2023-05-17T10:13:36.356Z,1000.00
2023-05-17T10:14:36.384Z,1000.00
2023-05-17T10:15:36.318Z,1000.00
2023-05-17T10:16:36.312Z,1000.00
2023-05-17T10:17:36.370Z,1000.00
2023-05-17T10:18:36.683Z,1000.00
2023-05-17T10:19:36.383Z,1000.00
2023-05-17T10:20:36.310Z,1000.00
2023-05-17T10:21:36.286Z,1000.00
2023-05-17T10:22:36.283Z,1000.00
2023-05-17T10:23:36.610Z,1000.00
2023-05-17T10:24:36.258Z,1000.00
2023-05-17T10:25:36.247Z,1000.00
2023-05-17T10:26:36.243Z,1000.00
2023-05-17T10:27:36.250Z,1000.00
2023-05-17T10:28:36.249Z,1000.00
2023-05-17T10:29:36.257Z,1000.00
2023-05-17T10:30:36.242Z,1000.00
2023-05-17T10:31:36.221Z,1000.00
2023-05-17T10:32:36.223Z,1000.00
2023-05-17T10:33:36.659Z,1000.00
2023-05-17T10:34:36.226Z,1000.00
2023-05-17T10:35:36.187Z,1000.00
2023-05-17T10:36:36.216Z,939.70
2023-05-17T10:37:36.194Z,728.70
2023-05-17T10:38:42.577Z,618.78
2023-05-17T10:39:37.195Z,619.84
2023-05-17T10:40:36.161Z,623.20
2023-05-17T10:41:36.146Z,658.95
2023-05-17T10:42:36.147Z,662.04
2023-05-17T10:43:36.126Z,534.98
2023-05-17T10:44:36.122Z,522.21
2023-05-17T10:45:36.107Z,472.56
2023-05-17T10:46:36.120Z,483.88
2023-05-17T10:47:36.225Z,489.91
2023-05-17T10:48:36.238Z,523.33
2023-05-17T10:49:36.263Z,653.25
2023-05-17T10:50:36.321Z,731.55
2023-05-17T10:51:36.336Z,691.04
2023-05-17T10:52:36.357Z,631.14
2023-05-17T10:53:36.385Z,565.68
2023-05-17T10:54:36.425Z,502.96
2023-05-17T10:55:36.484Z,450.98
2023-05-17T10:56:36.560Z,410.60
2023-05-17T10:57:49.805Z,358.17
2023-05-17T10:58:37.574Z,325.59
2023-05-17T10:59:36.571Z,281.77
2023-05-17T11:00:36.551Z,253.22
2023-05-17T11:01:36.545Z,250.72
2023-05-17T11:02:36.617Z,265.70
2023-05-17T11:03:36.576Z,270.13
2023-05-17T11:04:36.592Z,294.99
2023-05-17T11:05:36.615Z,335.55
2023-05-17T11:06:36.628Z,322.21
2023-05-17T11:07:36.612Z,253.92
2023-05-17T11:08:36.605Z,242.97
2023-05-17T11:09:36.578Z,223.08
2023-05-17T11:10:36.606Z,231.57
2023-05-17T11:11:36.681Z,278.19
2023-05-17T11:12:37.604Z,280.79
2023-05-17T11:13:36.692Z,247.48
2023-05-17T11:14:36.665Z,267.12
2023-05-17T11:15:36.732Z,266.13
2023-05-17T11:16:36.687Z,281.02
2023-05-17T11:17:36.692Z,348.09
2023-05-17T11:18:39.738Z,381.84
2023-05-17T11:19:37.788Z,383.75
2023-05-17T11:20:37.239Z,399.05
2023-05-17T11:21:36.677Z,431.86
2023-05-17T11:22:36.696Z,434.34
2023-05-17T11:23:36.716Z,405.92
2023-05-17T11:24:36.732Z,311.84
2023-05-17T11:25:36.813Z,295.99
2023-05-17T11:26:36.803Z,328.95
2023-05-17T11:27:36.838Z,374.48
2023-05-17T11:28:36.852Z,380.72
2023-05-17T11:29:37.815Z,357.85
2023-05-17T11:30:37.095Z,322.21
2023-05-17T11:31:37.107Z,300.63
2023-05-17T11:32:37.180Z,286.54
2023-05-17T11:33:37.238Z,262.70
2023-05-17T11:34:37.260Z,272.10
2023-05-17T11:35:37.224Z,269.71
2023-05-17T11:36:37.318Z,259.20
2023-05-17T11:37:37.287Z,255.54
2023-05-17T11:38:37.290Z,262.61
2023-05-17T11:39:37.306Z,267.46
2023-05-17T11:40:37.338Z,279.25
2023-05-17T11:41:37.384Z,303.30
2023-05-17T11:42:37.368Z,310.12
2023-05-17T11:43:37.405Z,305.18
2023-05-17T11:44:37.413Z,308.22
2023-05-17T11:45:37.438Z,298.41
2023-05-17T11:46:37.444Z,271.04
2023-05-17T11:47:37.518Z,254.82
2023-05-17T11:48:37.527Z,226.50
2023-05-17T11:49:37.472Z,215.72
2023-05-17T11:50:37.477Z,211.36
2023-05-17T11:51:37.491Z,185.44
2023-05-17T11:52:37.509Z,168.91
2023-05-17T11:53:37.518Z,158.41
2023-05-17T11:54:37.523Z,174.48
2023-05-17T11:55:37.537Z,165.75
2023-05-17T11:57:39.329Z,164.32
2023-05-17T11:58:37.564Z,167.71
2023-05-17T11:59:37.529Z,176.82
2023-05-17T12:00:37.526Z,214.29
2023-05-17T12:01:37.546Z,322.13
2023-05-17T12:02:37.521Z,420.02
2023-05-17T12:03:37.642Z,500.99
2023-05-17T12:04:37.566Z,461.14
2023-05-17T12:05:37.501Z,423.35
2023-05-17T12:06:37.551Z,393.89
2023-05-17T12:07:37.508Z,356.44
2023-05-17T12:08:37.506Z,388.31
2023-05-17T12:09:37.487Z,357.46
2023-05-17T12:10:37.475Z,322.03
2023-05-17T12:11:37.438Z,287.94
2023-05-17T12:12:37.436Z,311.82
2023-05-17T12:13:37.446Z,346.90
2023-05-17T12:14:37.414Z,389.83
2023-05-17T12:15:37.442Z,445.08
2023-05-17T12:16:37.411Z,492.34
2023-05-17T12:17:37.449Z,587.65
2023-05-17T12:18:37.469Z,696.40
2023-05-17T12:19:37.488Z,716.24
2023-05-17T12:20:37.388Z,686.72
2023-05-17T12:21:37.374Z,673.25
2023-05-17T12:22:37.357Z,690.11
2023-05-17T12:23:37.388Z,711.29
2023-05-17T12:24:37.410Z,735.79
2023-05-17T12:25:37.337Z,853.90
2023-05-17T12:26:37.334Z,928.33
2023-05-17T12:27:37.339Z,891.83
2023-05-17T12:28:37.307Z,1000.00
2023-05-17T12:29:37.347Z,1000.00
2023-05-17T12:30:37.308Z,939.70
2023-05-17T12:31:37.308Z,984.91
2023-05-17T12:32:37.421Z,982.70
2023-05-17T12:33:37.383Z,991.77
2023-05-17T12:34:37.290Z,1000.00